sensor_id;sensor_type;location;lat;lon;timestamp;P1;durP1;ratioP1;P2;durP2;ratioP2
20065;SDS011;10193;48.884;9.182;2023-06-10T00:01:25;3.47;;;3.10;;
20065;SDS011;10193;48.884;9.182;2023-06-10T00:03:52;3.15;;;2.95;;
20065;SDS011;10193;48.884;9.182;2023-06-10T00:06:19;3.40;;;3.20;;
20065;SDS011;10193;48.884;9.182;2023-06-10T00:08:49;3.35;;;3.10;;
20065;SDS011;10193;48.884;9.182;2023-06-10T00:11:16;3.47;;;3.17;;
20065;SDS011;10193;48.884;9.182;2023-06-10T00:13:43;3.58;;;3.28;;
20065;SDS011;10193;48.884;9.182;2023-06-10T00:16:11;3.38;;;3.17;;
20065;SDS011;10193;48.884;9.182;2023-06-10T00:18:38;2.97;;;2.78;;
20065;SDS011;10193;48.884;9.182;2023-06-10T00:21:04;3.30;;;3.00;;
20065;SDS011;10193;48.884;9.182;2023-06-10T00:23:31;3.13;;;2.92;;
20065;SDS011;10193;48.884;9.182;2023-06-10T00:26:02;3.35;;;3.15;;
20065;SDS011;10193;48.884;9.182;2023-06-10T00:28:29;2.90;;;2.75;;
20065;SDS011;10193;48.884;9.182;2023-06-10T00:30:56;2.97;;;2.78;;
20065;SDS011;10193;48.884;9.182;2023-06-10T00:33:24;3.38;;;3.00;;
20065;SDS011;10193;48.884;9.182;2023-06-10T00:35:51;3.10;;;2.90;;
20065;SDS011;10193;48.884;9.182;2023-06-10T00:38:18;2.90;;;2.70;;
20065;SDS011;10193;48.884;9.182;2023-06-10T00:40:44;3.20;;;3.00;;
20065;SDS011;10193;48.884;9.182;2023-06-10T00:43:11;2.97;;;2.78;;
20065;SDS011;10193;48.884;9.182;2023-06-10T00:45:38;2.90;;;2.70;;
20065;SDS011;10193;48.884;9.182;2023-06-10T00:48:04;3.03;;;2.83;;
20065;SDS011;10193;48.884;9.182;2023-06-10T00:50:33;3.40;;;3.10;;
20065;SDS011;10193;48.884;9.182;2023-06-10T00:53:04;3.13;;;2.92;;
20065;SDS011;10193;48.884;9.182;2023-06-10T00:55:31;3.00;;;2.80;;
20065;SDS011;10193;48.884;9.182;2023-06-10T00:57:58;3.33;;;3.13;;
20065;SDS011;10193;48.884;9.182;2023-06-10T01:00:25;3.20;;;2.90;;
20065;SDS011;10193;48.884;9.182;2023-06-10T01:02:52;3.08;;;2.88;;
20065;SDS011;10193;48.884;9.182;2023-06-10T01:05:19;2.92;;;2.72;;
20065;SDS011;10193;48.884;9.182;2023-06-10T01:07:49;2.95;;;2.75;;
20065;SDS011;10193;48.884;9.182;2023-06-10T01:10:23;2.88;;;2.70;;
20065;SDS011;10193;48.884;9.182;2023-06-10T01:12:58;3.20;;;3.00;;
20065;SDS011;10193;48.884;9.182;2023-06-10T01:15:27;3.13;;;2.92;;
20065;SDS011;10193;48.884;9.182;2023-06-10T01:17:55;2.90;;;2.70;;
20065;SDS011;10193;48.884;9.182;2023-06-10T01:20:24;3.03;;;2.83;;
20065;SDS011;10193;48.884;9.182;2023-06-10T01:22:53;3.50;;;2.70;;
20065;SDS011;10193;48.884;9.182;2023-06-10T01:25:20;3.72;;;2.70;;
20065;SDS011;10193;48.884;9.182;2023-06-10T01:27:53;2.40;;;2.30;;
20065;SDS011;10193;48.884;9.182;2023-06-10T01:30:22;2.50;;;2.40;;
20065;SDS011;10193;48.884;9.182;2023-06-10T01:32:55;2.63;;;2.33;;
20065;SDS011;10193;48.884;9.182;2023-06-10T01:35:23;2.78;;;2.58;;
20065;SDS011;10193;48.884;9.182;2023-06-10T01:37:53;2.45;;;2.30;;
20065;SDS011;10193;48.884;9.182;2023-06-10T01:40:23;2.88;;;2.67;;
20065;SDS011;10193;48.884;9.182;2023-06-10T01:42:50;2.90;;;2.70;;
20065;SDS011;10193;48.884;9.182;2023-06-10T01:45:18;2.90;;;2.70;;
20065;SDS011;10193;48.884;9.182;2023-06-10T01:47:44;2.80;;;2.60;;
20065;SDS011;10193;48.884;9.182;2023-06-10T01:50:11;3.03;;;2.83;;
20065;SDS011;10193;48.884;9.182;2023-06-10T01:52:38;3.20;;;3.00;;
20065;SDS011;10193;48.884;9.182;2023-06-10T01:55:06;3.30;;;3.00;;
20065;SDS011;10193;48.884;9.182;2023-06-10T01:57:33;3.22;;;2.90;;
20065;SDS011;10193;48.884;9.182;2023-06-10T02:00:00;2.90;;;2.70;;
20065;SDS011;10193;48.884;9.182;2023-06-10T02:02:26;3.17;;;2.70;;
20065;SDS011;10193;48.884;9.182;2023-06-10T02:04:53;2.80;;;2.60;;
20065;SDS011;10193;48.884;9.182;2023-06-10T02:07:20;2.67;;;2.58;;
20065;SDS011;10193;48.884;9.182;2023-06-10T02:09:46;2.88;;;2.67;;
20065;SDS011;10193;48.884;9.182;2023-06-10T02:12:14;2.80;;;2.60;;
20065;SDS011;10193;48.884;9.182;2023-06-10T02:14:41;2.72;;;2.53;;
20065;SDS011;10193;48.884;9.182;2023-06-10T02:17:08;2.50;;;2.40;;
20065;SDS011;10193;48.884;9.182;2023-06-10T02:19:37;2.50;;;2.40;;
20065;SDS011;10193;48.884;9.182;2023-06-10T02:22:07;2.75;;;2.58;;
20065;SDS011;10193;48.884;9.182;2023-06-10T02:24:35;2.35;;;2.25;;
20065;SDS011;10193;48.884;9.182;2023-06-10T02:27:02;3.00;;;2.80;;
20065;SDS011;10193;48.884;9.182;2023-06-10T02:29:32;2.80;;;2.60;;
20065;SDS011;10193;48.884;9.182;2023-06-10T02:32:00;2.53;;;2.42;;
20065;SDS011;10193;48.884;9.182;2023-06-10T02:34:28;2.53;;;2.42;;
20065;SDS011;10193;48.884;9.182;2023-06-10T02:36:54;2.80;;;2.60;;
20065;SDS011;10193;48.884;9.182;2023-06-10T02:39:21;2.88;;;2.67;;
20065;SDS011;10193;48.884;9.182;2023-06-10T02:41:48;2.72;;;2.53;;
20065;SDS011;10193;48.884;9.182;2023-06-10T02:44:14;2.80;;;2.63;;
20065;SDS011;10193;48.884;9.182;2023-06-10T02:46:42;2.80;;;2.60;;
20065;SDS011;10193;48.884;9.182;2023-06-10T02:49:09;2.60;;;2.40;;
20065;SDS011;10193;48.884;9.182;2023-06-10T02:51:37;2.80;;;2.60;;
20065;SDS011;10193;48.884;9.182;2023-06-10T02:54:04;2.97;;;2.78;;
20065;SDS011;10193;48.884;9.182;2023-06-10T02:56:30;2.47;;;2.38;;
20065;SDS011;10193;48.884;9.182;2023-06-10T02:58:58;2.72;;;2.53;;
20065;SDS011;10193;48.884;9.182;2023-06-10T03:01:25;2.72;;;2.53;;
20065;SDS011;10193;48.884;9.182;2023-06-10T03:03:53;3.10;;;2.90;;
20065;SDS011;10193;48.884;9.182;2023-06-10T03:06:21;3.42;;;3.13;;
20065;SDS011;10193;48.884;9.182;2023-06-10T03:08:49;2.78;;;2.58;;
20065;SDS011;10193;48.884;9.182;2023-06-10T03:11:16;2.95;;;2.75;;
20065;SDS011;10193;48.884;9.182;2023-06-10T03:13:44;3.08;;;2.88;;
20065;SDS011;10193;48.884;9.182;2023-06-10T03:16:11;3.00;;;2.80;;
20065;SDS011;10193;48.884;9.182;2023-06-10T03:18:38;3.05;;;2.85;;
20065;SDS011;10193;48.884;9.182;2023-06-10T03:21:06;3.38;;;3.08;;
20065;SDS011;10193;48.884;9.182;2023-06-10T03:23:33;3.00;;;2.80;;
20065;SDS011;10193;48.884;9.182;2023-06-10T03:26:00;2.75;;;2.60;;
20065;SDS011;10193;48.884;9.182;2023-06-10T03:28:27;3.13;;;2.92;;
20065;SDS011;10193;48.884;9.182;2023-06-10T03:30:53;2.88;;;2.67;;
20065;SDS011;10193;48.884;9.182;2023-06-10T03:33:20;3.20;;;2.90;;
20065;SDS011;10193;48.884;9.182;2023-06-10T03:35:47;2.92;;;2.72;;
20065;SDS011;10193;48.884;9.182;2023-06-10T03:38:15;2.92;;;2.72;;
20065;SDS011;10193;48.884;9.182;2023-06-10T03:40:42;2.80;;;2.60;;
20065;SDS011;10193;48.884;9.182;2023-06-10T03:43:08;2.85;;;2.65;;
20065;SDS011;10193;48.884;9.182;2023-06-10T03:45:35;2.90;;;2.70;;
20065;SDS011;10193;48.884;9.182;2023-06-10T03:48:03;2.95;;;2.75;;
20065;SDS011;10193;48.884;9.182;2023-06-10T03:50:31;2.85;;;2.70;;
20065;SDS011;10193;48.884;9.182;2023-06-10T03:52:57;2.88;;;2.67;;
20065;SDS011;10193;48.884;9.182;2023-06-10T03:55:26;2.80;;;2.60;;
20065;SDS011;10193;48.884;9.182;2023-06-10T03:57:52;2.80;;;2.60;;
20065;SDS011;10193;48.884;9.182;2023-06-10T04:00:19;2.90;;;2.70;;
20065;SDS011;10193;48.884;9.182;2023-06-10T04:02:47;2.88;;;2.67;;
20065;SDS011;10193;48.884;9.182;2023-06-10T04:05:18;2.55;;;2.45;;
20065;SDS011;10193;48.884;9.182;2023-06-10T04:07:46;2.90;;;2.70;;
20065;SDS011;10193;48.884;9.182;2023-06-10T04:10:13;2.88;;;2.67;;
20065;SDS011;10193;48.884;9.182;2023-06-10T04:12:42;2.90;;;2.70;;
20065;SDS011;10193;48.884;9.182;2023-06-10T04:15:09;3.22;;;2.90;;
20065;SDS011;10193;48.884;9.182;2023-06-10T04:17:36;2.70;;;2.50;;
20065;SDS011;10193;48.884;9.182;2023-06-10T04:20:03;2.60;;;2.50;;
20065;SDS011;10193;48.884;9.182;2023-06-10T04:22:32;2.75;;;2.55;;
20065;SDS011;10193;48.884;9.182;2023-06-10T04:24:59;2.85;;;2.65;;
20065;SDS011;10193;48.884;9.182;2023-06-10T04:27:25;2.80;;;2.70;;
20065;SDS011;10193;48.884;9.182;2023-06-10T04:29:53;2.80;;;2.60;;
20065;SDS011;10193;48.884;9.182;2023-06-10T04:32:20;3.00;;;2.80;;
20065;SDS011;10193;48.884;9.182;2023-06-10T04:34:47;2.60;;;2.50;;
20065;SDS011;10193;48.884;9.182;2023-06-10T04:37:13;2.78;;;2.60;;
20065;SDS011;10193;48.884;9.182;2023-06-10T04:39:40;2.80;;;2.60;;
20065;SDS011;10193;48.884;9.182;2023-06-10T04:42:07;3.03;;;2.83;;
20065;SDS011;10193;48.884;9.182;2023-06-10T04:44:34;2.75;;;2.55;;
20065;SDS011;10193;48.884;9.182;2023-06-10T04:47:02;2.75;;;2.55;;
20065;SDS011;10193;48.884;9.182;2023-06-10T04:49:29;2.55;;;2.42;;
20065;SDS011;10193;48.884;9.182;2023-06-10T04:51:56;2.90;;;2.70;;
20065;SDS011;10193;48.884;9.182;2023-06-10T04:54:22;2.50;;;2.40;;
20065;SDS011;10193;48.884;9.182;2023-06-10T04:56:49;2.50;;;2.30;;
20065;SDS011;10193;48.884;9.182;2023-06-10T04:59:16;2.80;;;2.53;;
20065;SDS011;10193;48.884;9.182;2023-06-10T05:01:42;2.60;;;2.50;;
20065;SDS011;10193;48.884;9.182;2023-06-10T05:04:10;2.80;;;2.60;;
20065;SDS011;10193;48.884;9.182;2023-06-10T05:06:37;2.72;;;2.53;;
20065;SDS011;10193;48.884;9.182;2023-06-10T05:09:04;2.60;;;2.50;;
20065;SDS011;10193;48.884;9.182;2023-06-10T05:11:30;2.70;;;2.50;;
20065;SDS011;10193;48.884;9.182;2023-06-10T05:13:57;2.67;;;2.47;;
20065;SDS011;10193;48.884;9.182;2023-06-10T05:16:24;2.58;;;2.47;;
20065;SDS011;10193;48.884;9.182;2023-06-10T05:18:50;2.50;;;2.40;;
20065;SDS011;10193;48.884;9.182;2023-06-10T05:21:18;2.40;;;2.30;;
20065;SDS011;10193;48.884;9.182;2023-06-10T05:23:45;2.42;;;2.33;;
20065;SDS011;10193;48.884;9.182;2023-06-10T05:26:13;2.70;;;2.55;;
20065;SDS011;10193;48.884;9.182;2023-06-10T05:28:40;2.90;;;2.70;;
20065;SDS011;10193;48.884;9.182;2023-06-10T05:31:06;2.60;;;2.50;;
20065;SDS011;10193;48.884;9.182;2023-06-10T05:33:33;2.65;;;2.55;;
20065;SDS011;10193;48.884;9.182;2023-06-10T05:35:59;2.75;;;2.55;;
20065;SDS011;10193;48.884;9.182;2023-06-10T05:38:28;2.78;;;2.58;;
20065;SDS011;10193;48.884;9.182;2023-06-10T05:40:55;2.58;;;2.47;;
20065;SDS011;10193;48.884;9.182;2023-06-10T05:43:23;2.90;;;2.70;;
20065;SDS011;10193;48.884;9.182;2023-06-10T05:45:50;2.70;;;2.53;;
20065;SDS011;10193;48.884;9.182;2023-06-10T05:48:17;2.90;;;2.65;;
20065;SDS011;10193;48.884;9.182;2023-06-10T05:50:45;2.45;;;2.35;;
20065;SDS011;10193;48.884;9.182;2023-06-10T05:53:13;2.58;;;2.47;;
20065;SDS011;10193;48.884;9.182;2023-06-10T05:55:42;2.67;;;2.58;;
20065;SDS011;10193;48.884;9.182;2023-06-10T05:58:09;2.72;;;2.53;;
20065;SDS011;10193;48.884;9.182;2023-06-10T06:00:37;2.50;;;2.35;;
20065;SDS011;10193;48.884;9.182;2023-06-10T06:03:05;2.70;;;2.50;;
20065;SDS011;10193;48.884;9.182;2023-06-10T06:05:32;2.83;;;2.60;;
20065;SDS011;10193;48.884;9.182;2023-06-10T06:08:00;2.50;;;2.40;;
20065;SDS011;10193;48.884;9.182;2023-06-10T06:10:27;2.60;;;2.50;;
20065;SDS011;10193;48.884;9.182;2023-06-10T06:12:55;2.60;;;2.50;;
20065;SDS011;10193;48.884;9.182;2023-06-10T06:15:22;2.50;;;2.40;;
20065;SDS011;10193;48.884;9.182;2023-06-10T06:17:49;2.40;;;2.30;;
20065;SDS011;10193;48.884;9.182;2023-06-10T06:20:17;2.85;;;2.67;;
20065;SDS011;10193;48.884;9.182;2023-06-10T06:22:44;2.60;;;2.50;;
20065;SDS011;10193;48.884;9.182;2023-06-10T06:25:11;2.97;;;2.78;;
20065;SDS011;10193;48.884;9.182;2023-06-10T06:27:37;2.70;;;2.50;;
20065;SDS011;10193;48.884;9.182;2023-06-10T06:30:06;2.55;;;2.45;;
20065;SDS011;10193;48.884;9.182;2023-06-10T06:32:33;3.65;;;2.80;;
20065;SDS011;10193;48.884;9.182;2023-06-10T06:35:00;2.92;;;2.72;;
20065;SDS011;10193;48.884;9.182;2023-06-10T06:37:27;2.78;;;2.58;;
20065;SDS011;10193;48.884;9.182;2023-06-10T06:39:54;2.30;;;2.20;;
20065;SDS011;10193;48.884;9.182;2023-06-10T06:42:21;2.60;;;2.50;;
20065;SDS011;10193;48.884;9.182;2023-06-10T06:44:47;3.05;;;2.70;;
20065;SDS011;10193;48.884;9.182;2023-06-10T06:47:15;3.08;;;2.88;;
20065;SDS011;10193;48.884;9.182;2023-06-10T06:49:44;2.63;;;2.53;;
20065;SDS011;10193;48.884;9.182;2023-06-10T06:52:11;2.45;;;2.35;;
20065;SDS011;10193;48.884;9.182;2023-06-10T06:54:38;2.80;;;2.60;;
20065;SDS011;10193;48.884;9.182;2023-06-10T06:57:04;2.70;;;2.60;;
20065;SDS011;10193;48.884;9.182;2023-06-10T06:59:32;2.63;;;2.53;;
20065;SDS011;10193;48.884;9.182;2023-06-10T07:01:58;2.80;;;2.60;;
20065;SDS011;10193;48.884;9.182;2023-06-10T07:04:26;2.80;;;2.60;;
20065;SDS011;10193;48.884;9.182;2023-06-10T07:06:53;2.35;;;2.25;;
20065;SDS011;10193;48.884;9.182;2023-06-10T07:09:20;2.90;;;2.70;;
20065;SDS011;10193;48.884;9.182;2023-06-10T07:11:47;2.92;;;2.75;;
20065;SDS011;10193;48.884;9.182;2023-06-10T07:14:13;2.63;;;2.50;;
20065;SDS011;10193;48.884;9.182;2023-06-10T07:16:40;2.75;;;2.65;;
20065;SDS011;10193;48.884;9.182;2023-06-10T07:19:07;2.90;;;2.70;;
20065;SDS011;10193;48.884;9.182;2023-06-10T07:21:35;2.97;;;2.53;;
20065;SDS011;10193;48.884;9.182;2023-06-10T07:24:03;3.17;;;2.70;;
20065;SDS011;10193;48.884;9.182;2023-06-10T07:26:30;2.67;;;2.50;;
20065;SDS011;10193;48.884;9.182;2023-06-10T07:28:57;2.60;;;2.50;;
20065;SDS011;10193;48.884;9.182;2023-06-10T07:31:24;3.05;;;2.85;;
20065;SDS011;10193;48.884;9.182;2023-06-10T07:33:50;2.65;;;2.55;;
20065;SDS011;10193;48.884;9.182;2023-06-10T07:36:17;2.60;;;2.47;;
20065;SDS011;10193;48.884;9.182;2023-06-10T07:38:45;2.97;;;2.78;;
20065;SDS011;10193;48.884;9.182;2023-06-10T07:41:11;2.88;;;2.67;;
20065;SDS011;10193;48.884;9.182;2023-06-10T07:43:39;3.03;;;2.83;;
20065;SDS011;10193;48.884;9.182;2023-06-10T07:46:05;3.05;;;2.85;;
20065;SDS011;10193;48.884;9.182;2023-06-10T07:48:32;3.25;;;3.00;;
20065;SDS011;10193;48.884;9.182;2023-06-10T07:50:59;2.58;;;2.47;;
20065;SDS011;10193;48.884;9.182;2023-06-10T07:53:25;3.00;;;2.80;;
20065;SDS011;10193;48.884;9.182;2023-06-10T07:55:53;2.97;;;2.78;;
20065;SDS011;10193;48.884;9.182;2023-06-10T07:58:20;3.03;;;2.83;;
20065;SDS011;10193;48.884;9.182;2023-06-10T08:00:47;3.00;;;2.80;;
20065;SDS011;10193;48.884;9.182;2023-06-10T08:03:14;3.28;;;3.08;;
20065;SDS011;10193;48.884;9.182;2023-06-10T08:05:40;3.35;;;3.05;;
20065;SDS011;10193;48.884;9.182;2023-06-10T08:08:07;3.20;;;3.00;;
20065;SDS011;10193;48.884;9.182;2023-06-10T08:10:35;3.22;;;3.03;;
20065;SDS011;10193;48.884;9.182;2023-06-10T08:13:02;2.80;;;2.70;;
20065;SDS011;10193;48.884;9.182;2023-06-10T08:15:29;3.13;;;2.90;;
20065;SDS011;10193;48.884;9.182;2023-06-10T08:17:56;3.20;;;3.00;;
20065;SDS011;10193;48.884;9.182;2023-06-10T08:20:23;3.60;;;3.30;;
20065;SDS011;10193;48.884;9.182;2023-06-10T08:22:50;3.25;;;3.05;;
20065;SDS011;10193;48.884;9.182;2023-06-10T08:25:17;3.42;;;3.22;;
20065;SDS011;10193;48.884;9.182;2023-06-10T08:27:44;3.45;;;3.25;;
20065;SDS011;10193;48.884;9.182;2023-06-10T08:30:13;3.30;;;3.10;;
20065;SDS011;10193;48.884;9.182;2023-06-10T08:32:39;3.00;;;2.80;;
20065;SDS011;10193;48.884;9.182;2023-06-10T08:35:06;3.30;;;3.10;;
20065;SDS011;10193;48.884;9.182;2023-06-10T08:37:33;3.03;;;2.83;;
20065;SDS011;10193;48.884;9.182;2023-06-10T08:40:00;3.20;;;3.00;;
20065;SDS011;10193;48.884;9.182;2023-06-10T08:42:28;3.10;;;2.90;;
20065;SDS011;10193;48.884;9.182;2023-06-10T08:45:00;3.38;;;3.17;;
20065;SDS011;10193;48.884;9.182;2023-06-10T08:47:29;3.10;;;2.90;;
20065;SDS011;10193;48.884;9.182;2023-06-10T08:50:01;3.08;;;2.92;;
20065;SDS011;10193;48.884;9.182;2023-06-10T08:52:33;3.58;;;3.28;;
20065;SDS011;10193;48.884;9.182;2023-06-10T08:55:03;3.08;;;2.88;;
20065;SDS011;10193;48.884;9.182;2023-06-10T08:57:35;3.20;;;3.00;;
20065;SDS011;10193;48.884;9.182;2023-06-10T09:00:03;3.20;;;3.00;;
20065;SDS011;10193;48.884;9.182;2023-06-10T09:02:33;3.50;;;3.30;;
20065;SDS011;10193;48.884;9.182;2023-06-10T09:05:01;3.30;;;3.10;;
20065;SDS011;10193;48.884;9.182;2023-06-10T09:07:29;2.90;;;2.70;;
20065;SDS011;10193;48.884;9.182;2023-06-10T09:09:59;3.22;;;3.03;;
20065;SDS011;10193;48.884;9.182;2023-06-10T09:12:30;3.22;;;3.00;;
20065;SDS011;10193;48.884;9.182;2023-06-10T09:14:56;3.03;;;2.83;;
20065;SDS011;10193;48.884;9.182;2023-06-10T09:17:23;2.70;;;2.60;;
20065;SDS011;10193;48.884;9.182;2023-06-10T09:19:51;2.97;;;2.80;;
20065;SDS011;10193;48.884;9.182;2023-06-10T09:22:20;2.97;;;2.78;;
20065;SDS011;10193;48.884;9.182;2023-06-10T09:24:47;3.58;;;2.67;;
20065;SDS011;10193;48.884;9.182;2023-06-10T09:27:14;2.88;;;2.60;;
20065;SDS011;10193;48.884;9.182;2023-06-10T09:29:47;3.08;;;2.88;;
20065;SDS011;10193;48.884;9.182;2023-06-10T09:32:17;3.25;;;2.95;;
20065;SDS011;10193;48.884;9.182;2023-06-10T09:34:44;3.20;;;3.00;;
20065;SDS011;10193;48.884;9.182;2023-06-10T09:37:13;3.25;;;3.05;;
20065;SDS011;10193;48.884;9.182;2023-06-10T09:39:52;3.22;;;2.92;;
20065;SDS011;10193;48.884;9.182;2023-06-10T09:42:28;3.08;;;2.88;;
20065;SDS011;10193;48.884;9.182;2023-06-10T09:44:58;3.30;;;3.10;;
20065;SDS011;10193;48.884;9.182;2023-06-10T09:47:25;3.30;;;3.10;;
20065;SDS011;10193;48.884;9.182;2023-06-10T09:49:52;3.08;;;2.88;;
20065;SDS011;10193;48.884;9.182;2023-06-10T09:52:22;3.30;;;3.10;;
20065;SDS011;10193;48.884;9.182;2023-06-10T09:54:50;3.10;;;2.90;;
20065;SDS011;10193;48.884;9.182;2023-06-10T09:57:17;3.13;;;2.92;;
20065;SDS011;10193;48.884;9.182;2023-06-10T09:59:44;2.92;;;2.72;;
20065;SDS011;10193;48.884;9.182;2023-06-10T10:02:13;3.20;;;3.00;;
20065;SDS011;10193;48.884;9.182;2023-06-10T10:04:40;2.97;;;2.78;;
20065;SDS011;10193;48.884;9.182;2023-06-10T10:07:07;3.00;;;2.80;;
20065;SDS011;10193;48.884;9.182;2023-06-10T10:09:36;3.30;;;3.10;;
20065;SDS011;10193;48.884;9.182;2023-06-10T10:12:04;3.38;;;3.08;;
20065;SDS011;10193;48.884;9.182;2023-06-10T10:14:35;3.15;;;2.85;;
20065;SDS011;10193;48.884;9.182;2023-06-10T10:17:02;3.30;;;3.10;;
20065;SDS011;10193;48.884;9.182;2023-06-10T10:19:33;3.22;;;3.03;;
20065;SDS011;10193;48.884;9.182;2023-06-10T10:22:07;2.90;;;2.80;;
20065;SDS011;10193;48.884;9.182;2023-06-10T10:24:38;3.28;;;3.08;;
20065;SDS011;10193;48.884;9.182;2023-06-10T10:27:13;3.25;;;3.05;;
20065;SDS011;10193;48.884;9.182;2023-06-10T10:29:45;3.25;;;2.95;;
20065;SDS011;10193;48.884;9.182;2023-06-10T10:32:14;3.20;;;3.00;;
20065;SDS011;10193;48.884;9.182;2023-06-10T10:34:43;3.05;;;2.85;;
20065;SDS011;10193;48.884;9.182;2023-06-10T10:37:19;2.95;;;2.75;;
20065;SDS011;10193;48.884;9.182;2023-06-10T10:39:47;3.10;;;2.90;;
20065;SDS011;10193;48.884;9.182;2023-06-10T10:42:14;3.13;;;2.92;;
20065;SDS011;10193;48.884;9.182;2023-06-10T10:44:43;2.88;;;2.60;;
20065;SDS011;10193;48.884;9.182;2023-06-10T10:47:10;2.55;;;2.45;;
20065;SDS011;10193;48.884;9.182;2023-06-10T10:49:38;3.08;;;2.85;;
20065;SDS011;10193;48.884;9.182;2023-06-10T10:52:11;3.08;;;2.88;;
20065;SDS011;10193;48.884;9.182;2023-06-10T10:54:41;3.22;;;3.03;;
20065;SDS011;10193;48.884;9.182;2023-06-10T10:57:11;3.22;;;3.03;;
20065;SDS011;10193;48.884;9.182;2023-06-10T10:59:46;3.10;;;2.90;;
20065;SDS011;10193;48.884;9.182;2023-06-10T11:02:32;3.00;;;2.90;;
20065;SDS011;10193;48.884;9.182;2023-06-10T11:05:00;3.30;;;3.00;;
20065;SDS011;10193;48.884;9.182;2023-06-10T11:07:31;3.53;;;3.22;;
20065;SDS011;10193;48.884;9.182;2023-06-10T11:09:59;2.92;;;2.70;;
20065;SDS011;10193;48.884;9.182;2023-06-10T11:12:34;3.35;;;3.05;;
20065;SDS011;10193;48.884;9.182;2023-06-10T11:15:14;3.13;;;2.92;;
20065;SDS011;10193;48.884;9.182;2023-06-10T11:26:12;3.08;;;2.88;;
20065;SDS011;10193;48.884;9.182;2023-06-10T11:28:41;3.17;;;2.97;;
20065;SDS011;10193;48.884;9.182;2023-06-10T11:31:27;2.80;;;2.60;;
20065;SDS011;10193;48.884;9.182;2023-06-10T11:33:55;2.95;;;2.75;;
20065;SDS011;10193;48.884;9.182;2023-06-10T11:36:23;2.90;;;2.70;;
20065;SDS011;10193;48.884;9.182;2023-06-10T11:38:50;2.90;;;2.70;;
20065;SDS011;10193;48.884;9.182;2023-06-10T11:41:21;2.65;;;2.55;;
20065;SDS011;10193;48.884;9.182;2023-06-10T11:43:51;3.05;;;2.85;;
20065;SDS011;10193;48.884;9.182;2023-06-10T11:46:18;3.28;;;3.08;;
20065;SDS011;10193;48.884;9.182;2023-06-10T11:48:48;2.53;;;2.42;;
20065;SDS011;10193;48.884;9.182;2023-06-10T11:51:15;2.85;;;2.65;;
20065;SDS011;10193;48.884;9.182;2023-06-10T11:53:43;2.90;;;2.80;;
20065;SDS011;10193;48.884;9.182;2023-06-10T11:56:10;3.00;;;2.80;;
20065;SDS011;10193;48.884;9.182;2023-06-10T11:58:37;2.78;;;2.60;;
20065;SDS011;10193;48.884;9.182;2023-06-10T12:01:10;2.88;;;2.78;;
20065;SDS011;10193;48.884;9.182;2023-06-10T12:03:37;2.83;;;2.70;;
20065;SDS011;10193;48.884;9.182;2023-06-10T12:06:04;2.53;;;2.42;;
20065;SDS011;10193;48.884;9.182;2023-06-10T12:08:32;2.60;;;2.50;;
20065;SDS011;10193;48.884;9.182;2023-06-10T12:10:59;2.92;;;2.70;;
20065;SDS011;10193;48.884;9.182;2023-06-10T12:13:26;2.95;;;2.80;;
20065;SDS011;10193;48.884;9.182;2023-06-10T12:15:53;2.90;;;2.70;;
20065;SDS011;10193;48.884;9.182;2023-06-10T12:18:22;2.78;;;2.60;;
20065;SDS011;10193;48.884;9.182;2023-06-10T12:20:50;3.00;;;2.80;;
20065;SDS011;10193;48.884;9.182;2023-06-10T12:23:17;2.90;;;2.70;;
20065;SDS011;10193;48.884;9.182;2023-06-10T12:25:51;2.58;;;2.47;;
20065;SDS011;10193;48.884;9.182;2023-06-10T12:28:20;2.70;;;2.60;;
20065;SDS011;10193;48.884;9.182;2023-06-10T12:30:47;2.85;;;2.65;;
20065;SDS011;10193;48.884;9.182;2023-06-10T12:33:17;2.40;;;2.30;;
20065;SDS011;10193;48.884;9.182;2023-06-10T12:35:49;2.70;;;2.50;;
20065;SDS011;10193;48.884;9.182;2023-06-10T12:38:20;2.45;;;2.30;;
20065;SDS011;10193;48.884;9.182;2023-06-10T12:40:49;2.95;;;2.53;;
20065;SDS011;10193;48.884;9.182;2023-06-10T12:43:19;2.42;;;2.22;;
20065;SDS011;10193;48.884;9.182;2023-06-10T12:45:46;2.38;;;2.17;;
20065;SDS011;10193;48.884;9.182;2023-06-10T12:48:18;2.47;;;2.38;;
20065;SDS011;10193;48.884;9.182;2023-06-10T12:50:46;2.30;;;2.20;;
20065;SDS011;10193;48.884;9.182;2023-06-10T12:53:21;2.28;;;2.17;;
20065;SDS011;10193;48.884;9.182;2023-06-10T12:55:49;2.60;;;2.40;;
20065;SDS011;10193;48.884;9.182;2023-06-10T12:58:16;2.33;;;2.22;;
20065;SDS011;10193;48.884;9.182;2023-06-10T13:00:43;2.47;;;2.38;;
20065;SDS011;10193;48.884;9.182;2023-06-10T13:03:09;2.67;;;2.47;;
20065;SDS011;10193;48.884;9.182;2023-06-10T13:05:36;2.25;;;2.15;;
20065;SDS011;10193;48.884;9.182;2023-06-10T13:08:04;2.60;;;2.50;;
20065;SDS011;10193;48.884;9.182;2023-06-10T13:10:32;2.42;;;2.30;;
20065;SDS011;10193;48.884;9.182;2023-06-10T13:13:00;2.50;;;2.30;;
20065;SDS011;10193;48.884;9.182;2023-06-10T13:15:27;2.20;;;2.10;;
20065;SDS011;10193;48.884;9.182;2023-06-10T13:17:54;2.40;;;2.30;;
20065;SDS011;10193;48.884;9.182;2023-06-10T13:20:21;2.95;;;2.40;;
20065;SDS011;10193;48.884;9.182;2023-06-10T13:22:47;2.35;;;2.25;;
20065;SDS011;10193;48.884;9.182;2023-06-10T13:25:14;2.40;;;2.30;;
20065;SDS011;10193;48.884;9.182;2023-06-10T13:27:42;2.42;;;2.33;;
20065;SDS011;10193;48.884;9.182;2023-06-10T13:30:09;2.70;;;2.50;;
20065;SDS011;10193;48.884;9.182;2023-06-10T13:32:37;2.40;;;2.28;;
20065;SDS011;10193;48.884;9.182;2023-06-10T13:35:03;2.50;;;2.40;;
20065;SDS011;10193;48.884;9.182;2023-06-10T13:37:32;2.25;;;2.13;;
20065;SDS011;10193;48.884;9.182;2023-06-10T13:39:59;2.55;;;2.45;;
20065;SDS011;10193;48.884;9.182;2023-06-10T13:42:26;2.47;;;2.38;;
20065;SDS011;10193;48.884;9.182;2023-06-10T13:44:55;2.47;;;2.38;;
20065;SDS011;10193;48.884;9.182;2023-06-10T13:47:22;2.33;;;2.22;;
20065;SDS011;10193;48.884;9.182;2023-06-10T13:49:49;2.50;;;2.40;;
20065;SDS011;10193;48.884;9.182;2023-06-10T13:52:16;2.30;;;2.20;;
20065;SDS011;10193;48.884;9.182;2023-06-10T13:54:43;2.20;;;2.10;;
20065;SDS011;10193;48.884;9.182;2023-06-10T13:57:09;2.35;;;2.15;;
20065;SDS011;10193;48.884;9.182;2023-06-10T13:59:36;2.72;;;2.53;;
20065;SDS011;10193;48.884;9.182;2023-06-10T14:02:04;2.40;;;2.30;;
20065;SDS011;10193;48.884;9.182;2023-06-10T14:04:31;2.50;;;2.25;;
20065;SDS011;10193;48.884;9.182;2023-06-10T14:06:58;2.40;;;2.30;;
20065;SDS011;10193;48.884;9.182;2023-06-10T14:09:25;2.70;;;2.53;;
20065;SDS011;10193;48.884;9.182;2023-06-10T14:11:52;2.67;;;2.47;;
20065;SDS011;10193;48.884;9.182;2023-06-10T14:14:19;2.80;;;2.60;;
20065;SDS011;10193;48.884;9.182;2023-06-10T14:16:45;2.35;;;2.25;;
20065;SDS011;10193;48.884;9.182;2023-06-10T14:19:13;2.60;;;2.50;;
20065;SDS011;10193;48.884;9.182;2023-06-10T14:21:40;2.67;;;2.47;;
20065;SDS011;10193;48.884;9.182;2023-06-10T14:24:07;2.50;;;2.40;;
20065;SDS011;10193;48.884;9.182;2023-06-10T14:26:33;2.70;;;2.60;;
20065;SDS011;10193;48.884;9.182;2023-06-10T14:29:00;2.60;;;2.50;;
20065;SDS011;10193;48.884;9.182;2023-06-10T14:31:27;2.47;;;2.38;;
20065;SDS011;10193;48.884;9.182;2023-06-10T14:33:54;2.60;;;2.50;;
20065;SDS011;10193;48.884;9.182;2023-06-10T14:36:22;3.35;;;2.42;;
20065;SDS011;10193;48.884;9.182;2023-06-10T14:38:48;3.00;;;2.88;;
20065;SDS011;10193;48.884;9.182;2023-06-10T14:41:16;2.58;;;2.47;;
20065;SDS011;10193;48.884;9.182;2023-06-10T14:43:43;2.45;;;2.35;;
20065;SDS011;10193;48.884;9.182;2023-06-10T14:46:09;2.80;;;2.60;;
20065;SDS011;10193;48.884;9.182;2023-06-10T14:48:36;2.70;;;2.58;;
20065;SDS011;10193;48.884;9.182;2023-06-10T14:51:03;2.28;;;2.17;;
20065;SDS011;10193;48.884;9.182;2023-06-10T14:53:31;2.58;;;2.47;;
20065;SDS011;10193;48.884;9.182;2023-06-10T14:55:57;2.53;;;2.42;;
20065;SDS011;10193;48.884;9.182;2023-06-10T14:58:24;2.50;;;2.30;;
20065;SDS011;10193;48.884;9.182;2023-06-10T15:00:51;2.85;;;2.65;;